< < Back
Terminal Aerodrome Forecast


Current Version              Previous Versions:   1  2  3  4  5  6  7  8  9  

Terminal Aerodrome Forecast

788
FTUS42 KMLB 312300
TAFMCO
TAF
KMCO 312334Z 0100/0124 08009KT P6SM FEW045 BKN250
     FM010500 08003KT P6SM SCT250
     FM011500 13012KT P6SM SCT040=



Latest METAR

924
SAUS70 KWBC 011100 RRX
MTRMCO
METAR KMCO 011053Z 00000KT 10SM FEW047 SCT300 10/09 A3023 RMK AO2 SLP236
T01000089


USA.gov is the U.S. government's official web portal to all federal, state and local government web resources and services.